sensor_id;sensor_type;location;lat;lon;timestamp;P1;durP1;ratioP1;P2;durP2;ratioP2
15307;SDS011;7755;52.208;6.964;2023-08-06T00:00:17;9.90;;;7.67;;
15307;SDS011;7755;52.208;6.964;2023-08-06T00:04:22;10.27;;;9.23;;
15307;SDS011;7755;52.208;6.964;2023-08-06T00:08:25;9.77;;;8.87;;
15307;SDS011;7755;52.208;6.964;2023-08-06T00:12:29;9.67;;;8.77;;
15307;SDS011;7755;52.208;6.964;2023-08-06T00:16:32;9.20;;;8.30;;
15307;SDS011;7755;52.208;6.964;2023-08-06T00:20:40;8.30;;;7.50;;
15307;SDS011;7755;52.208;6.964;2023-08-06T00:24:59;9.60;;;8.73;;
15307;SDS011;7755;52.208;6.964;2023-08-06T00:42:42;12.00;;;9.77;;
15307;SDS011;7755;52.208;6.964;2023-08-06T00:46:46;10.83;;;9.77;;
15307;SDS011;7755;52.208;6.964;2023-08-06T00:50:49;11.10;;;9.83;;
15307;SDS011;7755;52.208;6.964;2023-08-06T00:54:55;9.27;;;8.37;;
15307;SDS011;7755;52.208;6.964;2023-08-06T00:58:59;9.10;;;8.13;;
15307;SDS011;7755;52.208;6.964;2023-08-06T01:03:03;11.37;;;9.27;;
15307;SDS011;7755;52.208;6.964;2023-08-06T01:07:09;10.13;;;8.90;;
15307;SDS011;7755;52.208;6.964;2023-08-06T01:11:25;10.77;;;9.67;;
15307;SDS011;7755;52.208;6.964;2023-08-06T01:15:39;11.20;;;10.10;;
15307;SDS011;7755;52.208;6.964;2023-08-06T01:19:45;10.63;;;9.63;;
15307;SDS011;7755;52.208;6.964;2023-08-06T01:23:54;10.83;;;9.73;;
15307;SDS011;7755;52.208;6.964;2023-08-06T01:28:05;14.20;;;10.53;;
15307;SDS011;7755;52.208;6.964;2023-08-06T01:32:15;11.43;;;10.33;;
15307;SDS011;7755;52.208;6.964;2023-08-06T01:36:19;10.83;;;9.73;;
15307;SDS011;7755;52.208;6.964;2023-08-06T01:40:25;10.70;;;9.67;;
15307;SDS011;7755;52.208;6.964;2023-08-06T01:44:30;11.20;;;10.10;;
15307;SDS011;7755;52.208;6.964;2023-08-06T01:48:34;14.47;;;13.03;;
15307;SDS011;7755;52.208;6.964;2023-08-06T01:52:37;9.70;;;8.70;;
15307;SDS011;7755;52.208;6.964;2023-08-06T01:56:42;10.70;;;9.60;;
15307;SDS011;7755;52.208;6.964;2023-08-06T02:00:45;10.30;;;9.10;;
15307;SDS011;7755;52.208;6.964;2023-08-06T02:04:48;10.00;;;9.13;;
15307;SDS011;7755;52.208;6.964;2023-08-06T02:08:51;11.00;;;9.83;;
15307;SDS011;7755;52.208;6.964;2023-08-06T02:12:56;10.67;;;9.67;;
15307;SDS011;7755;52.208;6.964;2023-08-06T02:17:02;11.87;;;10.73;;
15307;SDS011;7755;52.208;6.964;2023-08-06T02:21:09;11.30;;;10.17;;
15307;SDS011;7755;52.208;6.964;2023-08-06T02:25:13;10.50;;;9.50;;
15307;SDS011;7755;52.208;6.964;2023-08-06T02:29:19;10.47;;;9.47;;
15307;SDS011;7755;52.208;6.964;2023-08-06T02:33:22;10.87;;;9.77;;
15307;SDS011;7755;52.208;6.964;2023-08-06T02:37:25;9.83;;;8.83;;
15307;SDS011;7755;52.208;6.964;2023-08-06T02:41:28;11.77;;;10.50;;
15307;SDS011;7755;52.208;6.964;2023-08-06T02:45:33;10.17;;;9.23;;
15307;SDS011;7755;52.208;6.964;2023-08-06T02:49:37;10.60;;;9.50;;
15307;SDS011;7755;52.208;6.964;2023-08-06T02:53:41;11.00;;;9.90;;
15307;SDS011;7755;52.208;6.964;2023-08-06T02:57:47;11.87;;;10.67;;
15307;SDS011;7755;52.208;6.964;2023-08-06T03:01:52;10.03;;;8.97;;
15307;SDS011;7755;52.208;6.964;2023-08-06T03:06:03;10.77;;;9.67;;
15307;SDS011;7755;52.208;6.964;2023-08-06T03:10:17;10.30;;;9.30;;
15307;SDS011;7755;52.208;6.964;2023-08-06T03:14:36;14.43;;;12.93;;
15307;SDS011;7755;52.208;6.964;2023-08-06T03:18:47;12.97;;;11.67;;
15307;SDS011;7755;52.208;6.964;2023-08-06T03:22:51;11.63;;;10.53;;
15307;SDS011;7755;52.208;6.964;2023-08-06T03:26:55;12.60;;;11.43;;
15307;SDS011;7755;52.208;6.964;2023-08-06T03:30:59;11.47;;;10.43;;
15307;SDS011;7755;52.208;6.964;2023-08-06T03:35:11;13.63;;;12.30;;
15307;SDS011;7755;52.208;6.964;2023-08-06T03:39:14;12.73;;;11.50;;
15307;SDS011;7755;52.208;6.964;2023-08-06T03:43:18;14.03;;;12.73;;
15307;SDS011;7755;52.208;6.964;2023-08-06T03:47:22;13.20;;;12.00;;
15307;SDS011;7755;52.208;6.964;2023-08-06T03:51:27;12.30;;;11.13;;
15307;SDS011;7755;52.208;6.964;2023-08-06T03:55:31;14.80;;;13.23;;
15307;SDS011;7755;52.208;6.964;2023-08-06T03:59:35;13.40;;;12.20;;
15307;SDS011;7755;52.208;6.964;2023-08-06T04:03:38;13.70;;;12.33;;
15307;SDS011;7755;52.208;6.964;2023-08-06T04:07:49;15.10;;;12.50;;
15307;SDS011;7755;52.208;6.964;2023-08-06T04:16:04;12.03;;;10.93;;
15307;SDS011;7755;52.208;6.964;2023-08-06T04:20:09;12.40;;;11.20;;
15307;SDS011;7755;52.208;6.964;2023-08-06T04:24:14;13.47;;;12.17;;
15307;SDS011;7755;52.208;6.964;2023-08-06T04:28:17;12.83;;;11.67;;
15307;SDS011;7755;52.208;6.964;2023-08-06T04:32:21;13.53;;;12.23;;
15307;SDS011;7755;52.208;6.964;2023-08-06T04:36:29;12.03;;;10.93;;
15307;SDS011;7755;52.208;6.964;2023-08-06T04:40:35;12.50;;;11.30;;
15307;SDS011;7755;52.208;6.964;2023-08-06T04:44:38;12.90;;;11.60;;
15307;SDS011;7755;52.208;6.964;2023-08-06T04:48:42;12.00;;;10.33;;
15307;SDS011;7755;52.208;6.964;2023-08-06T04:52:46;12.50;;;11.20;;
15307;SDS011;7755;52.208;6.964;2023-08-06T04:56:50;12.57;;;11.47;;
15307;SDS011;7755;52.208;6.964;2023-08-06T05:00:59;15.17;;;11.30;;
15307;SDS011;7755;52.208;6.964;2023-08-06T05:05:12;14.03;;;12.63;;
15307;SDS011;7755;52.208;6.964;2023-08-06T05:09:28;14.63;;;13.27;;
15307;SDS011;7755;52.208;6.964;2023-08-06T05:13:33;12.83;;;11.60;;
15307;SDS011;7755;52.208;6.964;2023-08-06T05:17:36;15.20;;;13.03;;
15307;SDS011;7755;52.208;6.964;2023-08-06T05:21:40;14.37;;;12.77;;
15307;SDS011;7755;52.208;6.964;2023-08-06T05:25:44;11.80;;;10.70;;
15307;SDS011;7755;52.208;6.964;2023-08-06T05:29:49;13.40;;;12.00;;
15307;SDS011;7755;52.208;6.964;2023-08-06T05:33:53;12.73;;;11.43;;
15307;SDS011;7755;52.208;6.964;2023-08-06T05:37:56;13.10;;;11.90;;
15307;SDS011;7755;52.208;6.964;2023-08-06T05:41:59;12.27;;;11.07;;
15307;SDS011;7755;52.208;6.964;2023-08-06T05:46:03;14.60;;;12.07;;
15307;SDS011;7755;52.208;6.964;2023-08-06T05:50:07;11.67;;;10.60;;
15307;SDS011;7755;52.208;6.964;2023-08-06T05:54:11;12.50;;;11.30;;
15307;SDS011;7755;52.208;6.964;2023-08-06T05:58:14;13.47;;;11.93;;
15307;SDS011;7755;52.208;6.964;2023-08-06T06:02:21;13.23;;;11.93;;
15307;SDS011;7755;52.208;6.964;2023-08-06T06:06:23;13.30;;;12.00;;
15307;SDS011;7755;52.208;6.964;2023-08-06T06:10:27;13.20;;;11.87;;
15307;SDS011;7755;52.208;6.964;2023-08-06T06:14:30;12.13;;;10.93;;
15307;SDS011;7755;52.208;6.964;2023-08-06T06:18:34;11.90;;;10.90;;
15307;SDS011;7755;52.208;6.964;2023-08-06T06:22:37;11.90;;;10.70;;
15307;SDS011;7755;52.208;6.964;2023-08-06T06:26:40;11.77;;;10.57;;
15307;SDS011;7755;52.208;6.964;2023-08-06T06:30:43;13.03;;;11.73;;
15307;SDS011;7755;52.208;6.964;2023-08-06T06:34:48;10.17;;;9.17;;
15307;SDS011;7755;52.208;6.964;2023-08-06T06:38:51;12.40;;;11.17;;
15307;SDS011;7755;52.208;6.964;2023-08-06T06:42:54;14.50;;;12.10;;
15307;SDS011;7755;52.208;6.964;2023-08-06T06:46:57;11.97;;;10.80;;
15307;SDS011;7755;52.208;6.964;2023-08-06T06:51:02;14.30;;;11.80;;
15307;SDS011;7755;52.208;6.964;2023-08-06T06:55:05;13.07;;;11.77;;
15307;SDS011;7755;52.208;6.964;2023-08-06T06:59:10;10.63;;;9.60;;
15307;SDS011;7755;52.208;6.964;2023-08-06T07:03:13;11.90;;;10.73;;
15307;SDS011;7755;52.208;6.964;2023-08-06T07:07:17;10.33;;;9.33;;
15307;SDS011;7755;52.208;6.964;2023-08-06T07:11:20;9.80;;;8.90;;
15307;SDS011;7755;52.208;6.964;2023-08-06T07:15:23;10.10;;;9.07;;
15307;SDS011;7755;52.208;6.964;2023-08-06T07:19:26;10.73;;;9.73;;
15307;SDS011;7755;52.208;6.964;2023-08-06T07:23:31;31.00;;;26.13;;
15307;SDS011;7755;52.208;6.964;2023-08-06T07:27:35;11.17;;;10.10;;
15307;SDS011;7755;52.208;6.964;2023-08-06T07:31:39;9.83;;;8.93;;
15307;SDS011;7755;52.208;6.964;2023-08-06T07:35:42;9.70;;;8.70;;
15307;SDS011;7755;52.208;6.964;2023-08-06T07:39:47;10.70;;;9.57;;
15307;SDS011;7755;52.208;6.964;2023-08-06T07:43:52;8.93;;;8.13;;
15307;SDS011;7755;52.208;6.964;2023-08-06T07:47:58;10.27;;;9.40;;
15307;SDS011;7755;52.208;6.964;2023-08-06T07:52:01;8.40;;;7.60;;
15307;SDS011;7755;52.208;6.964;2023-08-06T07:56:06;8.20;;;7.53;;
15307;SDS011;7755;52.208;6.964;2023-08-06T08:00:10;9.27;;;8.47;;
15307;SDS011;7755;52.208;6.964;2023-08-06T08:04:14;7.47;;;6.83;;
15307;SDS011;7755;52.208;6.964;2023-08-06T08:08:17;7.47;;;6.87;;
15307;SDS011;7755;52.208;6.964;2023-08-06T08:12:22;9.03;;;8.23;;
15307;SDS011;7755;52.208;6.964;2023-08-06T08:16:30;16.37;;;14.87;;
15307;SDS011;7755;52.208;6.964;2023-08-06T08:20:33;9.80;;;8.80;;
15307;SDS011;7755;52.208;6.964;2023-08-06T08:24:37;9.23;;;8.30;;
15307;SDS011;7755;52.208;6.964;2023-08-06T08:28:41;6.93;;;6.33;;
15307;SDS011;7755;52.208;6.964;2023-08-06T08:32:45;6.90;;;6.20;;
15307;SDS011;7755;52.208;6.964;2023-08-06T08:41:12;6.47;;;5.90;;
15307;SDS011;7755;52.208;6.964;2023-08-06T08:45:33;7.97;;;7.20;;
15307;SDS011;7755;52.208;6.964;2023-08-06T08:49:41;7.33;;;6.63;;
15307;SDS011;7755;52.208;6.964;2023-08-06T08:53:46;7.97;;;7.20;;
15307;SDS011;7755;52.208;6.964;2023-08-06T08:57:52;6.60;;;6.10;;
15307;SDS011;7755;52.208;6.964;2023-08-06T09:01:56;6.27;;;5.67;;
15307;SDS011;7755;52.208;6.964;2023-08-06T09:06:03;7.20;;;6.60;;
15307;SDS011;7755;52.208;6.964;2023-08-06T09:10:07;7.00;;;6.40;;
15307;SDS011;7755;52.208;6.964;2023-08-06T09:14:13;6.50;;;5.90;;
15307;SDS011;7755;52.208;6.964;2023-08-06T09:18:24;5.90;;;5.50;;
15307;SDS011;7755;52.208;6.964;2023-08-06T09:22:33;8.83;;;6.60;;
15307;SDS011;7755;52.208;6.964;2023-08-06T09:26:37;5.80;;;5.30;;
15307;SDS011;7755;52.208;6.964;2023-08-06T09:30:41;12.23;;;10.87;;
15307;SDS011;7755;52.208;6.964;2023-08-06T09:34:45;7.10;;;6.40;;
15307;SDS011;7755;52.208;6.964;2023-08-06T09:38:51;6.40;;;5.80;;
15307;SDS011;7755;52.208;6.964;2023-08-06T09:42:55;6.30;;;5.80;;
15307;SDS011;7755;52.208;6.964;2023-08-06T09:47:10;6.27;;;5.63;;
15307;SDS011;7755;52.208;6.964;2023-08-06T09:51:15;6.23;;;5.70;;
15307;SDS011;7755;52.208;6.964;2023-08-06T09:55:20;6.00;;;5.33;;
15307;SDS011;7755;52.208;6.964;2023-08-06T09:59:24;6.07;;;5.40;;
15307;SDS011;7755;52.208;6.964;2023-08-06T10:03:28;6.63;;;5.53;;
15307;SDS011;7755;52.208;6.964;2023-08-06T10:07:34;5.37;;;4.93;;
15307;SDS011;7755;52.208;6.964;2023-08-06T10:11:39;5.10;;;4.67;;
15307;SDS011;7755;52.208;6.964;2023-08-06T10:15:50;5.30;;;4.90;;
15307;SDS011;7755;52.208;6.964;2023-08-06T10:20:02;4.40;;;4.07;;
15307;SDS011;7755;52.208;6.964;2023-08-06T10:24:20;4.80;;;4.40;;
15307;SDS011;7755;52.208;6.964;2023-08-06T10:28:36;4.40;;;4.10;;
15307;SDS011;7755;52.208;6.964;2023-08-06T10:32:55;4.30;;;4.00;;
15307;SDS011;7755;52.208;6.964;2023-08-06T10:37:19;4.50;;;4.20;;
15307;SDS011;7755;52.208;6.964;2023-08-06T10:54:53;3.80;;;3.60;;
15307;SDS011;7755;52.208;6.964;2023-08-06T10:59:08;3.70;;;3.40;;
15307;SDS011;7755;52.208;6.964;2023-08-06T11:03:12;3.07;;;2.77;;
15307;SDS011;7755;52.208;6.964;2023-08-06T11:07:15;4.27;;;3.57;;
15307;SDS011;7755;52.208;6.964;2023-08-06T11:33:34;4.20;;;3.60;;
15307;SDS011;7755;52.208;6.964;2023-08-06T11:37:46;4.17;;;3.87;;
15307;SDS011;7755;52.208;6.964;2023-08-06T11:41:50;3.60;;;3.40;;
15307;SDS011;7755;52.208;6.964;2023-08-06T11:45:55;4.03;;;3.73;;
15307;SDS011;7755;52.208;6.964;2023-08-06T11:50:06;4.07;;;3.20;;
15307;SDS011;7755;52.208;6.964;2023-08-06T11:54:10;3.00;;;2.80;;
15307;SDS011;7755;52.208;6.964;2023-08-06T11:58:13;3.43;;;3.13;;
15307;SDS011;7755;52.208;6.964;2023-08-06T12:02:20;3.27;;;3.03;;
15307;SDS011;7755;52.208;6.964;2023-08-06T12:06:28;2.80;;;2.60;;
15307;SDS011;7755;52.208;6.964;2023-08-06T12:10:31;3.00;;;2.70;;
15307;SDS011;7755;52.208;6.964;2023-08-06T12:14:36;2.20;;;2.10;;
15307;SDS011;7755;52.208;6.964;2023-08-06T12:18:39;2.20;;;2.10;;
15307;SDS011;7755;52.208;6.964;2023-08-06T12:22:49;3.67;;;2.20;;
15307;SDS011;7755;52.208;6.964;2023-08-06T12:26:52;2.20;;;2.10;;
15307;SDS011;7755;52.208;6.964;2023-08-06T12:30:55;2.60;;;2.40;;
15307;SDS011;7755;52.208;6.964;2023-08-06T12:34:58;2.50;;;2.30;;
15307;SDS011;7755;52.208;6.964;2023-08-06T12:39:04;4.57;;;4.27;;
15307;SDS011;7755;52.208;6.964;2023-08-06T12:43:11;5.33;;;4.93;;
15307;SDS011;7755;52.208;6.964;2023-08-06T12:47:19;5.87;;;5.47;;
15307;SDS011;7755;52.208;6.964;2023-08-06T12:51:29;7.03;;;6.53;;
15307;SDS011;7755;52.208;6.964;2023-08-06T12:55:36;6.33;;;5.80;;
15307;SDS011;7755;52.208;6.964;2023-08-06T12:59:42;6.80;;;6.20;;
15307;SDS011;7755;52.208;6.964;2023-08-06T13:03:45;5.70;;;5.30;;
15307;SDS011;7755;52.208;6.964;2023-08-06T13:07:49;4.43;;;4.10;;
15307;SDS011;7755;52.208;6.964;2023-08-06T13:11:54;4.17;;;3.87;;
15307;SDS011;7755;52.208;6.964;2023-08-06T13:15:58;4.17;;;3.87;;
15307;SDS011;7755;52.208;6.964;2023-08-06T13:20:01;3.37;;;3.17;;
15307;SDS011;7755;52.208;6.964;2023-08-06T13:24:04;4.43;;;4.13;;
15307;SDS011;7755;52.208;6.964;2023-08-06T13:28:08;4.40;;;4.10;;
15307;SDS011;7755;52.208;6.964;2023-08-06T13:32:11;3.80;;;3.60;;
15307;SDS011;7755;52.208;6.964;2023-08-06T13:36:14;4.37;;;4.07;;
15307;SDS011;7755;52.208;6.964;2023-08-06T13:40:18;4.07;;;3.17;;
15307;SDS011;7755;52.208;6.964;2023-08-06T13:44:22;4.50;;;3.00;;
15307;SDS011;7755;52.208;6.964;2023-08-06T13:48:25;3.10;;;2.70;;
15307;SDS011;7755;52.208;6.964;2023-08-06T13:52:28;5.27;;;4.77;;
15307;SDS011;7755;52.208;6.964;2023-08-06T13:56:32;8.97;;;8.27;;
15307;SDS011;7755;52.208;6.964;2023-08-06T14:00:37;9.13;;;8.33;;
15307;SDS011;7755;52.208;6.964;2023-08-06T14:04:40;8.50;;;7.70;;
15307;SDS011;7755;52.208;6.964;2023-08-06T14:08:44;8.13;;;7.43;;
15307;SDS011;7755;52.208;6.964;2023-08-06T14:12:49;8.50;;;7.90;;
15307;SDS011;7755;52.208;6.964;2023-08-06T14:17:12;8.30;;;7.57;;
15307;SDS011;7755;52.208;6.964;2023-08-06T14:21:16;11.07;;;10.00;;
15307;SDS011;7755;52.208;6.964;2023-08-06T14:25:19;8.77;;;5.67;;
15307;SDS011;7755;52.208;6.964;2023-08-06T14:29:23;4.77;;;4.23;;
15307;SDS011;7755;52.208;6.964;2023-08-06T14:33:28;5.67;;;3.93;;
15307;SDS011;7755;52.208;6.964;2023-08-06T14:37:31;7.10;;;6.40;;
15307;SDS011;7755;52.208;6.964;2023-08-06T14:41:35;8.23;;;6.10;;
15307;SDS011;7755;52.208;6.964;2023-08-06T14:45:38;6.67;;;6.07;;
15307;SDS011;7755;52.208;6.964;2023-08-06T14:49:43;6.00;;;5.47;;
15307;SDS011;7755;52.208;6.964;2023-08-06T14:53:46;6.00;;;5.47;;
15307;SDS011;7755;52.208;6.964;2023-08-06T14:57:49;5.83;;;4.93;;
15307;SDS011;7755;52.208;6.964;2023-08-06T15:01:53;6.53;;;5.93;;
15307;SDS011;7755;52.208;6.964;2023-08-06T15:05:57;4.70;;;4.30;;
15307;SDS011;7755;52.208;6.964;2023-08-06T15:10:00;4.07;;;3.63;;
15307;SDS011;7755;52.208;6.964;2023-08-06T15:14:24;3.50;;;3.30;;
15307;SDS011;7755;52.208;6.964;2023-08-06T15:18:27;4.10;;;3.40;;
15307;SDS011;7755;52.208;6.964;2023-08-06T15:22:32;3.30;;;3.03;;
15307;SDS011;7755;52.208;6.964;2023-08-06T15:26:36;4.00;;;3.70;;
15307;SDS011;7755;52.208;6.964;2023-08-06T15:30:39;4.13;;;3.73;;
15307;SDS011;7755;52.208;6.964;2023-08-06T15:34:46;4.93;;;4.10;;
15307;SDS011;7755;52.208;6.964;2023-08-06T15:38:52;5.83;;;5.30;;
15307;SDS011;7755;52.208;6.964;2023-08-06T15:42:55;5.70;;;5.20;;
15307;SDS011;7755;52.208;6.964;2023-08-06T15:46:58;6.60;;;6.00;;
15307;SDS011;7755;52.208;6.964;2023-08-06T15:51:01;7.37;;;6.77;;
15307;SDS011;7755;52.208;6.964;2023-08-06T15:55:07;7.67;;;6.97;;
15307;SDS011;7755;52.208;6.964;2023-08-06T15:59:21;8.00;;;7.30;;
15307;SDS011;7755;52.208;6.964;2023-08-06T16:03:27;8.23;;;7.43;;
15307;SDS011;7755;52.208;6.964;2023-08-06T16:07:30;7.73;;;7.03;;
15307;SDS011;7755;52.208;6.964;2023-08-06T16:11:34;7.70;;;6.90;;
15307;SDS011;7755;52.208;6.964;2023-08-06T16:15:38;6.83;;;6.13;;
15307;SDS011;7755;52.208;6.964;2023-08-06T16:19:41;7.73;;;7.00;;
15307;SDS011;7755;52.208;6.964;2023-08-06T16:23:44;7.63;;;6.93;;
15307;SDS011;7755;52.208;6.964;2023-08-06T16:27:48;8.87;;;8.07;;
15307;SDS011;7755;52.208;6.964;2023-08-06T16:31:52;8.37;;;7.57;;
15307;SDS011;7755;52.208;6.964;2023-08-06T16:35:55;9.00;;;8.20;;
15307;SDS011;7755;52.208;6.964;2023-08-06T16:39:59;7.27;;;6.70;;
15307;SDS011;7755;52.208;6.964;2023-08-06T16:44:03;9.53;;;8.60;;
15307;SDS011;7755;52.208;6.964;2023-08-06T16:48:11;9.00;;;8.20;;
15307;SDS011;7755;52.208;6.964;2023-08-06T16:52:15;10.00;;;9.20;;
15307;SDS011;7755;52.208;6.964;2023-08-06T16:56:19;9.60;;;8.73;;
15307;SDS011;7755;52.208;6.964;2023-08-06T17:00:24;8.63;;;7.93;;
15307;SDS011;7755;52.208;6.964;2023-08-06T17:04:29;9.53;;;8.63;;
15307;SDS011;7755;52.208;6.964;2023-08-06T17:08:32;8.60;;;7.47;;
15307;SDS011;7755;52.208;6.964;2023-08-06T17:12:36;8.20;;;7.50;;
15307;SDS011;7755;52.208;6.964;2023-08-06T17:16:42;8.67;;;7.87;;
15307;SDS011;7755;52.208;6.964;2023-08-06T17:20:46;7.63;;;6.97;;
15307;SDS011;7755;52.208;6.964;2023-08-06T17:24:50;8.63;;;7.83;;
15307;SDS011;7755;52.208;6.964;2023-08-06T17:28:53;8.53;;;7.73;;
15307;SDS011;7755;52.208;6.964;2023-08-06T17:32:58;8.13;;;7.43;;
15307;SDS011;7755;52.208;6.964;2023-08-06T17:37:01;7.23;;;6.63;;
15307;SDS011;7755;52.208;6.964;2023-08-06T17:41:08;8.33;;;7.63;;
15307;SDS011;7755;52.208;6.964;2023-08-06T17:45:23;7.20;;;6.60;;
15307;SDS011;7755;52.208;6.964;2023-08-06T17:49:28;7.77;;;6.87;;
15307;SDS011;7755;52.208;6.964;2023-08-06T17:53:33;6.90;;;6.30;;
15307;SDS011;7755;52.208;6.964;2023-08-06T17:57:36;7.03;;;5.63;;
15307;SDS011;7755;52.208;6.964;2023-08-06T18:01:40;5.50;;;5.00;;
15307;SDS011;7755;52.208;6.964;2023-08-06T18:05:46;5.30;;;4.90;;
15307;SDS011;7755;52.208;6.964;2023-08-06T18:09:58;9.57;;;4.70;;
15307;SDS011;7755;52.208;6.964;2023-08-06T18:14:01;7.13;;;4.33;;
15307;SDS011;7755;52.208;6.964;2023-08-06T18:18:05;8.13;;;3.63;;
15307;SDS011;7755;52.208;6.964;2023-08-06T18:22:26;6.07;;;3.37;;
15307;SDS011;7755;52.208;6.964;2023-08-06T18:26:44;5.47;;;3.47;;
15307;SDS011;7755;52.208;6.964;2023-08-06T18:35:19;5.37;;;3.30;;
15307;SDS011;7755;52.208;6.964;2023-08-06T18:39:39;4.10;;;3.07;;
15307;SDS011;7755;52.208;6.964;2023-08-06T18:48:21;5.53;;;3.20;;
15307;SDS011;7755;52.208;6.964;2023-08-06T18:52:35;4.00;;;2.83;;
15307;SDS011;7755;52.208;6.964;2023-08-06T18:56:56;4.60;;;2.80;;
15307;SDS011;7755;52.208;6.964;2023-08-06T19:01:12;4.30;;;2.23;;
15307;SDS011;7755;52.208;6.964;2023-08-06T19:05:30;4.67;;;2.10;;
15307;SDS011;7755;52.208;6.964;2023-08-06T19:09:47;3.87;;;1.93;;
15307;SDS011;7755;52.208;6.964;2023-08-06T19:18:14;4.43;;;2.23;;
15307;SDS011;7755;52.208;6.964;2023-08-06T19:22:23;4.73;;;2.20;;
15307;SDS011;7755;52.208;6.964;2023-08-06T19:30:49;4.50;;;2.03;;
15307;SDS011;7755;52.208;6.964;2023-08-06T19:35:04;2.87;;;1.50;;
15307;SDS011;7755;52.208;6.964;2023-08-06T19:39:10;4.60;;;1.93;;
15307;SDS011;7755;52.208;6.964;2023-08-06T19:43:18;2.83;;;1.60;;
15307;SDS011;7755;52.208;6.964;2023-08-06T19:47:27;2.03;;;1.50;;
15307;SDS011;7755;52.208;6.964;2023-08-06T19:51:39;4.33;;;1.83;;
15307;SDS011;7755;52.208;6.964;2023-08-06T19:55:42;2.30;;;1.70;;
15307;SDS011;7755;52.208;6.964;2023-08-06T19:59:46;3.60;;;1.40;;
15307;SDS011;7755;52.208;6.964;2023-08-06T20:03:51;1.17;;;1.10;;
15307;SDS011;7755;52.208;6.964;2023-08-06T20:07:55;1.67;;;1.53;;
15307;SDS011;7755;52.208;6.964;2023-08-06T20:11:58;2.73;;;1.40;;
15307;SDS011;7755;52.208;6.964;2023-08-06T20:16:02;3.73;;;1.70;;
15307;SDS011;7755;52.208;6.964;2023-08-06T20:20:08;4.23;;;2.20;;
15307;SDS011;7755;52.208;6.964;2023-08-06T20:24:12;3.50;;;1.93;;
15307;SDS011;7755;52.208;6.964;2023-08-06T20:28:16;3.33;;;1.57;;
15307;SDS011;7755;52.208;6.964;2023-08-06T20:32:19;3.00;;;1.70;;
15307;SDS011;7755;52.208;6.964;2023-08-06T20:36:25;3.37;;;1.97;;
15307;SDS011;7755;52.208;6.964;2023-08-06T20:40:28;3.87;;;1.90;;
15307;SDS011;7755;52.208;6.964;2023-08-06T20:44:31;3.00;;;2.00;;
15307;SDS011;7755;52.208;6.964;2023-08-06T20:48:36;3.73;;;1.40;;
15307;SDS011;7755;52.208;6.964;2023-08-06T20:52:40;4.93;;;2.27;;
15307;SDS011;7755;52.208;6.964;2023-08-06T20:56:44;3.93;;;2.10;;
15307;SDS011;7755;52.208;6.964;2023-08-06T21:00:47;2.93;;;1.70;;
15307;SDS011;7755;52.208;6.964;2023-08-06T21:04:50;4.80;;;2.10;;
15307;SDS011;7755;52.208;6.964;2023-08-06T21:08:55;4.67;;;2.00;;
15307;SDS011;7755;52.208;6.964;2023-08-06T21:12:59;3.57;;;2.43;;
15307;SDS011;7755;52.208;6.964;2023-08-06T21:17:02;3.63;;;2.03;;
15307;SDS011;7755;52.208;6.964;2023-08-06T21:21:05;6.20;;;2.30;;
15307;SDS011;7755;52.208;6.964;2023-08-06T21:25:10;2.67;;;2.03;;
15307;SDS011;7755;52.208;6.964;2023-08-06T21:29:13;3.53;;;2.17;;
15307;SDS011;7755;52.208;6.964;2023-08-06T21:33:17;3.70;;;1.80;;
15307;SDS011;7755;52.208;6.964;2023-08-06T21:37:20;3.50;;;2.30;;
15307;SDS011;7755;52.208;6.964;2023-08-06T21:41:24;3.27;;;2.00;;
15307;SDS011;7755;52.208;6.964;2023-08-06T21:45:28;3.73;;;2.20;;
15307;SDS011;7755;52.208;6.964;2023-08-06T21:49:31;2.57;;;1.67;;
15307;SDS011;7755;52.208;6.964;2023-08-06T21:53:37;6.70;;;2.30;;
15307;SDS011;7755;52.208;6.964;2023-08-06T21:57:42;4.80;;;2.23;;
15307;SDS011;7755;52.208;6.964;2023-08-06T22:01:46;3.20;;;2.00;;
15307;SDS011;7755;52.208;6.964;2023-08-06T22:05:49;2.70;;;2.10;;
15307;SDS011;7755;52.208;6.964;2023-08-06T22:09:52;2.93;;;2.20;;
15307;SDS011;7755;52.208;6.964;2023-08-06T22:13:57;5.33;;;2.27;;
15307;SDS011;7755;52.208;6.964;2023-08-06T22:18:01;3.27;;;2.20;;
15307;SDS011;7755;52.208;6.964;2023-08-06T22:22:05;5.17;;;2.70;;
15307;SDS011;7755;52.208;6.964;2023-08-06T22:26:08;2.87;;;2.50;;
15307;SDS011;7755;52.208;6.964;2023-08-06T22:30:12;4.23;;;2.20;;
15307;SDS011;7755;52.208;6.964;2023-08-06T22:34:16;5.03;;;2.87;;
15307;SDS011;7755;52.208;6.964;2023-08-06T22:38:19;5.43;;;2.27;;
15307;SDS011;7755;52.208;6.964;2023-08-06T22:42:22;4.53;;;2.37;;
15307;SDS011;7755;52.208;6.964;2023-08-06T22:46:26;3.03;;;2.33;;
15307;SDS011;7755;52.208;6.964;2023-08-06T22:50:30;2.80;;;2.10;;
15307;SDS011;7755;52.208;6.964;2023-08-06T22:54:33;6.10;;;2.50;;
15307;SDS011;7755;52.208;6.964;2023-08-06T22:58:36;4.97;;;3.17;;
15307;SDS011;7755;52.208;6.964;2023-08-06T23:02:41;2.73;;;2.07;;
15307;SDS011;7755;52.208;6.964;2023-08-06T23:07:04;2.43;;;1.77;;
15307;SDS011;7755;52.208;6.964;2023-08-06T23:11:07;3.37;;;1.90;;
15307;SDS011;7755;52.208;6.964;2023-08-06T23:15:11;1.73;;;1.60;;
15307;SDS011;7755;52.208;6.964;2023-08-06T23:19:16;1.60;;;1.50;;
15307;SDS011;7755;52.208;6.964;2023-08-06T23:23:19;3.57;;;1.93;;
15307;SDS011;7755;52.208;6.964;2023-08-06T23:27:22;2.23;;;2.03;;
15307;SDS011;7755;52.208;6.964;2023-08-06T23:31:25;3.10;;;2.47;;
15307;SDS011;7755;52.208;6.964;2023-08-06T23:35:30;4.03;;;2.90;;
15307;SDS011;7755;52.208;6.964;2023-08-06T23:39:32;2.90;;;2.60;;
15307;SDS011;7755;52.208;6.964;2023-08-06T23:43:35;3.57;;;3.20;;
15307;SDS011;7755;52.208;6.964;2023-08-06T23:47:38;4.37;;;3.00;;
15307;SDS011;7755;52.208;6.964;2023-08-06T23:51:44;4.80;;;3.17;;
15307;SDS011;7755;52.208;6.964;2023-08-06T23:55:48;4.50;;;3.37;;
15307;SDS011;7755;52.208;6.964;2023-08-06T23:59:51;3.97;;;2.70;;
